메인 페이지
METAR-TAF:

METAR-TAF

공항 :

메리다, 멕시코

위도: 20-56N, 경도: 089-39W, 고도: 10m

현재 날씨관측

예보는 1 시간 5분 전, 03:40시(UTC)에 발표되었습니다.
남동15kt
온도 33°C
습도 53%
기압 1010 hPa
시정: 9.7km
맑음

METAR: MMMD 260340Z 13015KT 6SM SKC 33/22 A2982 RMK HZY

시각: 23:45 (04:45 UTC)

예보

예보는 5 시간 15분 전, 23:30시(UTC)에 발표되었습니다.
예보 대상 시간: 26일 00시부터 27일 00시까지 (UTC)
북동10kt, 순간 최대 풍속 20kt
시정: 10km
맑음
26일 0300시부터 (UTC)
남동6kt
시정: 10km
고도 1500ft 상공 구름 보통
일시적
26일 11시부터 26일 15시까지 (UTC)
시정: 4.8km
고도 1000ft 상공 구름 많음
박무
26일 1500시부터 (UTC)
남동15kt
시정: 10km
맑음

TAF: MMMD 252330Z 2600/2700 04010G20KT P6SM SKC TX41/2621Z TN26/2611Z FM260300 14006KT P6SM SCT015 TEMPO 2611/2615 3SM BR BKN010 FM261500 14015KT P6SM SKC

4,000개 이상의 공항 관측 자료 및 예보 (METAR 및 TAF 보고).

지도상에서 검색 가능한 기상관측소가 노란 점과 빨간 점으로 표시되어 있습니다.

기상관측소 명을 보려면 표시 위로 마우스를 이동하세요.

날씨 관측과 예보를 보려면 클릭하세요.

지도 변경 : 확대하려면 엑스 표시가 있는 녹색 버튼, 축소하려면 빼기 표시가 있는 녹색 버튼, 다음 페이지의 지도를 보려면 녹색 화살표를 클릭하세요.


METAR-TAF: